Time;durP1;ratioP1;P1;durP2;ratioP2;P2;SDS_P1;SDS_P2;PMS_P1;PMS_P2;Temp;Humidity;BMP_temperature;BMP_pressure;BME280_temperature;BME280_humidity;BME280_pressure;Samples;Min_cycle;Max_cycle;Signal;HPM_P1;HPM_P2
2022/05/20 00:00:46;;;;;;;0.40;0.20;;;;;;;13.21;64.34;96422.75;5114497;28;20431;-55
2022/05/20 00:03:15;;;;;;;0.50;0.30;;;;;;;13.14;68.55;96424.84;5114805;28;20442;-55
2022/05/20 00:05:44;;;;;;;0.40;0.20;;;;;;;13.13;67.98;96421.38;5114706;28;20475;-55
2022/05/20 00:08:13;;;;;;;0.50;0.30;;;;;;;13.13;67.80;96425.94;5114673;28;20544;-55
2022/05/20 00:10:41;;;;;;;0.50;0.30;;;;;;;11.89;66.14;96226.19;5113990;28;20514;-55
2022/05/20 00:13:10;;;;;;;0.40;0.20;;;;;;;12.44;65.65;96321.44;5114716;28;20480;-55
2022/05/20 00:15:40;;;;;;;0.40;0.20;;;;;;;13.01;66.86;96414.63;5113892;28;20510;-55
2022/05/20 00:18:09;;;;;;;0.40;0.30;;;;;;;12.86;66.82;96395.91;5114612;28;20515;-55
2022/05/20 00:20:37;;;;;;;0.40;0.20;;;;;;;12.57;68.65;96393.59;5114230;28;20420;-55
2022/05/20 00:23:06;;;;;;;0.40;0.20;;;;;;;12.48;68.17;96381.03;5114193;28;20476;-55
2022/05/20 00:25:46;;;;;;;0.40;0.20;;;;;;;12.57;68.37;96382.94;5114334;28;20579;-55
2022/05/20 00:28:15;;;;;;;0.37;0.20;;;;;;;12.61;68.77;96402.66;5114203;28;20519;-55
2022/05/20 00:30:46;;;;;;;0.40;0.30;;;;;;;12.66;69.74;96410.69;5113705;28;20428;-55
2022/05/20 00:33:15;;;;;;;0.40;0.30;;;;;;;12.65;67.09;96410.94;5112902;28;20467;-55
2022/05/20 00:35:45;;;;;;;0.40;0.20;;;;;;;12.50;70.07;96418.78;5113753;28;20945;-55
2022/05/20 00:38:14;;;;;;;0.40;0.20;;;;;;;12.00;67.07;96411.97;5113820;28;20419;-55
2022/05/20 00:40:43;;;;;;;0.40;0.20;;;;;;;11.87;68.75;96404.41;5113885;28;20789;-55
2022/05/20 00:43:15;;;;;;;0.40;0.20;;;;;;;12.07;71.55;96386.00;5113995;28;20453;-55
2022/05/20 00:45:46;;;;;;;0.40;0.30;;;;;;;12.04;69.92;96375.09;5113778;28;20536;-55
2022/05/20 00:48:15;;;;;;;0.40;0.20;;;;;;;11.88;71.18;96402.56;5113662;28;20786;-55
2022/05/20 00:50:47;;;;;;;0.40;0.20;;;;;;;12.02;71.96;96403.75;5113715;28;20432;-55
2022/05/20 00:53:19;;;;;;;0.40;0.20;;;;;;;12.22;68.90;96393.31;5113123;28;20800;-55
2022/05/20 00:55:48;;;;;;;0.40;0.20;;;;;;;12.25;66.82;96392.81;5113587;28;20423;-55
2022/05/20 00:58:20;;;;;;;0.50;0.40;;;;;;;12.34;65.22;96393.97;5113690;28;20423;-55
2022/05/20 01:00:53;;;;;;;0.40;0.20;;;;;;;12.40;65.18;96400.91;5113685;28;20471;-55
2022/05/20 01:03:26;;;;;;;0.40;0.20;;;;;;;12.44;65.00;96395.88;5113629;28;20431;-55
2022/05/20 01:05:56;;;;;;;0.40;0.20;;;;;;;12.42;65.02;96390.03;5113237;28;20467;-55
2022/05/20 01:08:27;;;;;;;0.40;0.30;;;;;;;12.44;63.01;96407.34;5113633;28;20436;-55
2022/05/20 01:10:55;;;;;;;0.40;0.30;;;;;;;12.39;62.52;96407.28;5112344;28;20466;-55
2022/05/20 01:13:26;;;;;;;0.37;0.20;;;;;;;12.02;64.88;96401.09;5112683;28;20445;-55
2022/05/20 01:15:57;;;;;;;0.40;0.20;;;;;;;12.09;65.40;96420.31;5112970;28;20463;-55
2022/05/20 01:18:26;;;;;;;0.70;0.70;;;;;;;11.98;67.38;96418.59;5111967;28;20986;-55
2022/05/20 01:20:57;;;;;;;0.40;0.20;;;;;;;11.64;71.33;96391.38;5112836;28;20416;-55
2022/05/20 01:23:28;;;;;;;0.40;0.20;;;;;;;11.24;78.33;96423.56;5111899;28;20447;-55
2022/05/20 01:25:59;;;;;;;0.40;0.20;;;;;;;10.63;84.58;96376.03;5112930;28;20459;-55
2022/05/20 01:28:29;;;;;;;0.47;0.47;;;;;;;11.22;82.56;96436.28;5113178;28;20427;-55
2022/05/20 01:31:01;;;;;;;0.40;0.30;;;;;;;11.32;80.59;96428.47;5113257;28;20861;-55
2022/05/20 01:33:32;;;;;;;0.40;0.30;;;;;;;10.95;81.41;96352.34;5112309;28;20511;-55
2022/05/20 01:36:03;;;;;;;0.40;0.20;;;;;;;11.28;82.21;96419.38;5112661;28;20889;-55
2022/05/20 01:38:33;;;;;;;0.40;0.27;;;;;;;10.98;80.32;96344.69;5112692;28;20416;-55
2022/05/20 01:41:06;;;;;;;0.63;0.63;;;;;;;11.53;82.78;96415.44;5112869;28;20498;-55
2022/05/20 01:43:49;;;;;;;0.40;0.20;;;;;;;10.32;83.12;96220.31;5113015;28;20507;-55
2022/05/20 01:46:37;;;;;;;0.40;0.30;;;;;;;11.32;81.70;96379.88;5112201;28;21040;-55
2022/05/20 01:49:30;;;;;;;0.33;0.20;;;;;;;11.54;82.08;96422.31;5112546;28;20516;-56
2022/05/20 01:52:06;;;;;;;0.40;0.20;;;;;;;11.06;81.32;96365.47;5112078;28;20537;-56
2022/05/20 01:54:44;;;;;;;0.40;0.20;;;;;;;11.46;80.89;96411.09;5112480;28;20431;-56
2022/05/20 01:57:22;;;;;;;0.40;0.20;;;;;;;11.45;82.03;96420.13;5112330;28;20427;-56
2022/05/20 01:59:54;;;;;;;0.30;0.20;;;;;;;11.55;78.70;96427.41;5112394;28;20510;-56
2022/05/20 02:02:27;;;;;;;0.40;0.20;;;;;;;11.54;78.46;96411.69;5111994;28;20467;-56
2022/05/20 02:05:01;;;;;;;0.40;0.30;;;;;;;11.57;75.14;96424.50;5112189;28;20959;-56
2022/05/20 02:07:34;;;;;;;0.40;0.20;;;;;;;11.45;75.57;96406.84;5112193;28;20447;-56
2022/05/20 02:10:09;;;;;;;1.03;0.50;;;;;;;11.22;80.60;96416.91;5112223;28;20850;-56
2022/05/20 02:12:45;;;;;;;0.40;0.30;;;;;;;10.70;88.46;96425.19;5112235;28;20466;-56
2022/05/20 02:15:20;;;;;;;0.40;0.20;;;;;;;10.95;83.79;96386.84;5112185;28;20484;-56
2022/05/20 02:17:53;;;;;;;0.40;0.20;;;;;;;10.60;88.78;96409.13;5112320;28;20515;-56
2022/05/20 02:20:27;;;;;;;0.40;0.20;;;;;;;9.88;93.81;96336.69;5112245;28;20986;-56
2022/05/20 02:23:00;;;;;;;0.50;0.30;;;;;;;9.68;99.22;96391.94;5111970;28;20485;-56
2022/05/20 02:25:36;;;;;;;0.40;0.20;;;;;;;10.41;96.20;96436.94;5112065;28;20494;-56
2022/05/20 02:28:10;;;;;;;0.40;0.20;;;;;;;9.59;93.68;96253.06;5112306;28;20470;-56
2022/05/20 02:30:40;;;;;;;0.40;0.30;;;;;;;10.85;91.51;96438.69;5112354;28;20952;-56
2022/05/20 02:33:12;;;;;;;0.40;0.20;;;;;;;10.81;90.89;96436.75;5113139;28;20993;-56
2022/05/20 02:35:41;;;;;;;0.50;0.43;;;;;;;10.81;91.65;96444.72;5116393;28;20447;-56
2022/05/20 02:38:12;;;;;;;0.50;0.30;;;;;;;10.62;92.28;96438.88;5116284;28;20493;-56
2022/05/20 02:40:45;;;;;;;0.80;0.70;;;;;;;10.70;94.71;96440.31;5116046;28;20411;-56
2022/05/20 02:43:14;;;;;;;0.40;0.30;;;;;;;10.76;91.25;96444.63;5116402;28;20500;-56
2022/05/20 02:45:45;;;;;;;0.40;0.20;;;;;;;10.12;91.71;96340.81;5116200;28;20506;-56
2022/05/20 02:48:16;;;;;;;0.50;0.50;;;;;;;10.76;91.88;96442.00;5115845;28;20484;-56
2022/05/20 02:50:44;;;;;;;0.40;0.20;;;;;;;10.79;91.01;96438.84;5115877;28;20465;-56
2022/05/20 02:53:13;;;;;;;0.40;0.30;;;;;;;10.29;89.39;96371.81;5115986;28;20837;-56
2022/05/20 02:55:43;;;;;;;0.30;0.20;;;;;;;10.65;94.24;96427.78;5116008;28;20475;-56
2022/05/20 03:04:09;;;;;;;0.40;0.30;;;;;;;10.48;95.68;96412.91;5115714;28;20514;-56
2022/05/20 03:04:11;;;;;;;0.40;0.20;;;;;;;10.56;94.48;96423.13;5115569;28;20442;-56
2022/05/20 03:06:40;;;;;;;0.40;0.20;;;;;;;10.63;94.31;96429.88;5115091;27;20992;-56
2022/05/20 03:09:12;;;;;;;0.40;0.20;;;;;;;10.67;93.91;96424.91;5116305;28;20420;-56
2022/05/20 03:11:42;;;;;;;0.40;0.23;;;;;;;10.57;94.90;96414.94;5115419;28;20523;-56
2022/05/20 03:14:13;;;;;;;0.70;0.30;;;;;;;10.65;96.29;96430.41;5115383;28;20485;-56
2022/05/20 03:16:42;;;;;;;0.33;0.20;;;;;;;10.64;95.55;96435.97;5115399;28;20528;-56
2022/05/20 03:19:11;;;;;;;0.30;0.20;;;;;;;10.54;93.83;96411.97;5115646;28;20480;-56
2022/05/20 03:21:41;;;;;;;0.30;0.20;;;;;;;10.72;95.77;96440.88;5115181;28;20423;-56
2022/05/20 03:24:12;;;;;;;0.30;0.20;;;;;;;10.51;94.29;96409.78;5115215;28;20430;-56
2022/05/20 03:26:43;;;;;;;0.30;0.20;;;;;;;10.75;94.59;96451.78;5114955;28;20481;-56
2022/05/20 03:29:11;;;;;;;0.30;0.20;;;;;;;10.65;93.72;96425.13;5115212;28;20484;-56
2022/05/20 03:31:41;;;;;;;0.30;0.20;;;;;;;10.82;95.94;96454.28;5114884;28;20477;-54
2022/05/20 03:34:11;;;;;;;0.30;0.20;;;;;;;10.86;93.65;96452.75;5115071;28;20415;-54
2022/05/20 03:36:40;;;;;;;0.30;0.20;;;;;;;10.95;92.52;96453.16;5115627;28;20431;-55
2022/05/20 03:39:11;;;;;;;0.40;0.30;;;;;;;10.94;93.15;96446.22;5114802;28;20431;-55
2022/05/20 03:41:40;;;;;;;0.30;0.20;;;;;;;10.98;92.12;96456.09;5114825;28;20484;-55
2022/05/20 03:44:12;;;;;;;0.30;0.20;;;;;;;11.03;91.18;96442.91;5115117;28;20427;-55
2022/05/20 03:46:41;;;;;;;0.30;0.30;;;;;;;11.08;90.73;96447.50;5113767;28;20510;-54
2022/05/20 03:49:10;;;;;;;0.30;0.20;;;;;;;11.01;92.07;96447.66;5114918;28;20477;-55
2022/05/20 03:51:38;;;;;;;0.40;0.20;;;;;;;11.07;90.55;96451.19;5114361;28;20466;-54
2022/05/20 03:54:07;;;;;;;0.47;0.33;;;;;;;11.03;89.39;96461.47;5114899;28;20510;-55
2022/05/20 03:56:35;;;;;;;0.30;0.20;;;;;;;10.97;89.75;96462.47;5114589;28;20470;-54
2022/05/20 03:59:04;;;;;;;0.30;0.20;;;;;;;10.58;86.04;96379.41;5114513;28;20489;-54
2022/05/20 04:04:19;;;;;;;0.30;0.20;;;;;;;11.15;88.11;96458.75;5114055;28;20434;-55
2022/05/20 04:06:48;;;;;;;0.30;0.30;;;;;;;11.13;91.95;96455.53;5114280;28;20511;-55
2022/05/20 04:09:16;;;;;;;1.00;0.90;;;;;;;10.50;96.84;96401.03;5114227;28;20488;-55
2022/05/20 04:11:45;;;;;;;0.30;0.20;;;;;;;10.50;98.72;96461.22;5114004;28;20497;-55
2022/05/20 04:14:13;;;;;;;0.40;0.30;;;;;;;10.90;100.00;96459.19;5114130;28;20868;-52
2022/05/20 04:16:43;;;;;;;0.50;0.37;;;;;;;11.60;100.00;96455.88;5113967;28;20842;-56
2022/05/20 04:19:12;;;;;;;0.30;0.20;;;;;;;11.41;96.85;96473.94;5114506;28;20443;-57
2022/05/20 04:21:41;;;;;;;0.30;0.20;;;;;;;11.46;95.31;96474.81;5114308;28;20510;-57
2022/05/20 04:24:10;;;;;;;0.40;0.30;;;;;;;11.13;99.13;96474.88;5114231;28;20424;-57
2022/05/20 04:26:38;;;;;;;0.30;0.20;;;;;;;11.20;99.41;96472.88;5113309;28;20536;-56
2022/05/20 04:29:06;;;;;;;0.60;0.60;;;;;;;11.35;95.61;96453.69;5114001;28;20463;-56
2022/05/20 04:31:35;;;;;;;0.30;0.20;;;;;;;11.70;93.05;96469.28;5114177;28;20502;-57
2022/05/20 04:34:05;;;;;;;0.70;0.70;;;;;;;11.65;92.60;96463.91;5113615;28;20455;-57
2022/05/20 04:36:33;;;;;;;0.30;0.30;;;;;;;11.61;91.40;96460.94;5113194;28;20454;-57
2022/05/20 04:39:02;;;;;;;0.40;0.40;;;;;;;11.69;91.50;96473.03;5113950;28;20455;-57
2022/05/20 04:47:05;;;;;;;0.40;0.30;;;;;;;11.80;90.00;96461.44;5113547;28;20526;-57
2022/05/20 04:49:39;;;;;;;0.40;0.30;;;;;;;12.04;87.54;96466.22;5113605;28;20511;-57
2022/05/20 04:52:08;;;;;;;0.40;0.30;;;;;;;12.00;86.34;96462.47;5113414;28;20532;-57
2022/05/20 04:54:50;;;;;;;0.40;0.40;;;;;;;11.40;90.56;96388.22;5113376;28;20431;-56
2022/05/20 04:57:25;;;;;;;0.70;0.70;;;;;;;11.82;92.07;96424.81;5112237;28;20459;-58
2022/05/20 04:59:57;;;;;;;0.40;0.30;;;;;;;12.43;82.19;96464.22;5113939;27;20415;-56
2022/05/20 05:02:27;;;;;;;0.50;0.40;;;;;;;12.82;74.58;96469.31;5113311;28;20427;-56
2022/05/20 05:04:57;;;;;;;0.67;0.67;;;;;;;12.97;74.70;96472.09;5113053;28;20427;-56
2022/05/20 05:07:26;;;;;;;0.40;0.20;;;;;;;11.41;72.37;96219.09;5112042;28;20511;-56
2022/05/20 05:09:54;;;;;;;0.43;0.27;;;;;;;12.80;71.68;96474.09;5113153;28;20467;-56
2022/05/20 05:12:23;;;;;;;0.40;0.30;;;;;;;12.77;69.23;96465.56;5113096;28;20462;-56
2022/05/20 05:14:53;;;;;;;0.47;0.47;;;;;;;12.98;65.16;96469.16;5113349;28;20451;-56
2022/05/20 05:20:11;;;;;;;0.40;0.20;;;;;;;11.39;62.56;96168.94;5112873;28;20874;-58
2022/05/20 05:22:40;;;;;;;0.40;0.30;;;;;;;13.15;59.54;96421.13;5113582;28;20423;-56
2022/05/20 05:25:10;;;;;;;0.50;0.30;;;;;;;13.50;58.69;96449.81;5113148;28;20416;-55
2022/05/20 05:27:39;;;;;;;0.40;0.30;;;;;;;13.52;58.65;96445.81;5112684;28;20850;-56
2022/05/20 05:30:10;;;;;;;0.97;0.97;;;;;;;13.73;60.81;96446.72;5113059;28;20483;-56
2022/05/20 05:32:38;;;;;;;0.50;0.33;;;;;;;14.13;64.79;96441.47;5112981;28;20883;-56
2022/05/20 05:35:11;;;;;;;0.40;0.20;;;;;;;13.49;61.49;96283.06;5112603;28;20415;-55
2022/05/20 05:37:42;;;;;;;0.40;0.30;;;;;;;14.54;61.90;96435.16;5112737;28;20514;-55
2022/05/20 05:40:17;;;;;;;0.83;0.83;;;;;;;13.42;61.55;96274.53;5112859;28;20459;-56
2022/05/20 05:42:46;;;;;;;0.53;0.53;;;;;;;14.20;58.44;96409.22;5112569;28;20438;-56
2022/05/20 05:45:17;;;;;;;0.40;0.40;;;;;;;14.28;58.22;96438.84;5112050;28;20416;-57
2022/05/20 05:47:48;;;;;;;0.40;0.30;;;;;;;14.75;58.55;96438.59;5112443;28;20501;-56
2022/05/20 05:50:18;;;;;;;0.40;0.20;;;;;;;14.84;61.35;96434.34;5112395;28;20437;-57
2022/05/20 05:52:47;;;;;;;0.40;0.30;;;;;;;13.52;59.17;96208.75;5112652;28;20795;-57
2022/05/20 05:55:15;;;;;;;0.47;0.30;;;;;;;15.01;59.16;96436.72;5112280;28;20423;-57
2022/05/20 05:57:44;;;;;;;0.40;0.27;;;;;;;14.54;55.23;96260.94;5112235;28;20888;-57
2022/05/20 06:00:13;;;;;;;0.50;0.40;;;;;;;14.91;54.98;96444.75;5112592;28;20420;-57
2022/05/20 06:02:42;;;;;;;0.40;0.30;;;;;;;14.73;53.73;96458.63;5112174;28;20427;-58
2022/05/20 06:05:10;;;;;;;0.50;0.30;;;;;;;14.36;54.70;96438.34;5112644;28;20503;-56
2022/05/20 06:07:40;;;;;;;0.60;0.47;;;;;;;15.27;52.66;96449.78;5111722;28;21030;-57
2022/05/20 06:10:09;;;;;;;0.40;0.30;;;;;;;15.03;51.57;96376.63;5112371;28;20994;-57
2022/05/20 06:12:38;;;;;;;0.50;0.33;;;;;;;15.58;49.64;96455.06;5112395;28;20423;-58
2022/05/20 06:15:09;;;;;;;0.50;0.40;;;;;;;16.31;48.78;96419.38;5110975;28;20517;-58
2022/05/20 06:17:37;;;;;;;0.40;0.30;;;;;;;17.11;47.53;96451.94;5112015;28;20495;-59
2022/05/20 06:20:07;;;;;;;0.40;0.20;;;;;;;17.29;46.82;96431.66;5112224;28;20462;-59
2022/05/20 06:22:36;;;;;;;0.40;0.20;;;;;;;17.53;45.67;96430.59;5112011;28;20428;-59
2022/05/20 06:25:08;;;;;;;0.40;0.30;;;;;;;17.55;44.60;96425.78;5111885;28;20506;-59
2022/05/20 06:27:36;;;;;;;0.40;0.20;;;;;;;17.29;47.01;96293.13;5111641;28;20562;-60
2022/05/20 06:30:09;;;;;;;0.40;0.30;;;;;;;17.68;44.69;96422.38;5111965;28;20514;-60
2022/05/20 06:32:37;;;;;;;0.40;0.30;;;;;;;18.30;45.48;96417.81;5111857;28;21009;-60
2022/05/20 06:40:44;;;;;;;0.50;0.50;;;;;;;18.68;43.06;96411.34;5111806;28;20498;-60
2022/05/20 06:43:14;;;;;;;0.40;0.23;;;;;;;18.86;42.79;96407.81;5111626;28;21133;-60
2022/05/20 06:45:45;;;;;;;0.43;0.40;;;;;;;18.47;42.59;96407.38;5111814;28;20419;-60
2022/05/20 06:48:42;;;;;;;0.50;0.40;;;;;;;19.76;42.12;96403.75;5111317;28;20479;-60
2022/05/20 06:51:12;;;;;;;2.60;1.43;;;;;;;19.64;42.79;96406.91;5111340;28;20462;-60
2022/05/20 06:53:41;;;;;;;0.40;0.30;;;;;;;18.70;42.55;96411.84;5111594;28;20996;-60
2022/05/20 06:56:11;;;;;;;0.53;0.30;;;;;;;19.56;43.29;96400.34;5111678;28;20945;-60
2022/05/20 06:58:40;;;;;;;0.40;0.27;;;;;;;20.35;41.45;96397.34;5111618;28;20424;-60
2022/05/20 07:01:08;;;;;;;0.40;0.30;;;;;;;20.59;39.80;96403.25;5111729;28;20832;-60
2022/05/20 07:03:37;;;;;;;0.40;0.30;;;;;;;21.09;38.65;96393.91;5111402;28;20463;-62
2022/05/20 07:06:06;;;;;;;0.40;0.30;;;;;;;20.41;38.01;96355.72;5111600;28;20427;-60
2022/05/20 07:08:36;;;;;;;0.40;0.30;;;;;;;20.93;38.62;96395.38;5111357;28;20499;-59
2022/05/20 07:11:06;;;;;;;0.40;0.40;;;;;;;21.02;38.38;96326.16;5111875;28;20446;-59
2022/05/20 07:13:41;;;;;;;0.40;0.23;;;;;;;21.49;37.55;96386.63;5111489;28;20478;-59
2022/05/20 07:16:17;;;;;;;0.50;0.30;;;;;;;21.84;39.13;96385.63;5111537;28;20475;-58
2022/05/20 07:18:45;;;;;;;6.43;0.80;;;;;;;21.96;36.75;96383.13;5111587;28;20451;-58
2022/05/20 07:21:14;;;;;;;0.40;0.30;;;;;;;22.10;36.66;96383.78;5113993;28;20514;-58
2022/05/20 07:23:43;;;;;;;2.80;0.40;;;;;;;22.44;36.44;96374.88;5114789;28;20431;-58
2022/05/20 07:26:13;;;;;;;0.60;0.43;;;;;;;22.93;35.89;96375.47;5115771;28;21089;-57
2022/05/20 07:28:43;;;;;;;0.40;0.20;;;;;;;22.36;35.12;96378.41;5114902;28;20506;-57
2022/05/20 07:31:11;;;;;;;0.40;0.20;;;;;;;22.67;36.05;96373.63;5115114;28;20468;-57
2022/05/20 07:33:39;;;;;;;0.40;0.20;;;;;;;23.31;33.88;96362.78;5114926;28;20522;-57
2022/05/20 07:36:08;;;;;;;0.50;0.30;;;;;;;23.23;33.91;96361.72;5114927;28;20488;-57
2022/05/20 07:38:37;;;;;;;0.57;0.57;;;;;;;23.08;33.43;96251.34;5114821;28;20444;-56
2022/05/20 07:41:05;;;;;;;0.40;0.30;;;;;;;23.01;32.99;96363.84;5114833;28;20455;-52
2022/05/20 07:43:34;;;;;;;0.40;0.30;;;;;;;22.36;35.02;96362.19;5114642;28;20428;-57
2022/05/20 07:46:04;;;;;;;0.40;0.30;;;;;;;23.46;33.13;96361.47;5114796;28;20470;-57
2022/05/20 07:48:33;;;;;;;0.53;0.50;;;;;;;24.11;34.53;96353.63;5115036;28;20467;-51
2022/05/20 07:51:04;;;;;;;1.53;0.30;;;;;;;24.43;32.68;96350.19;5114780;28;20407;-52
2022/05/20 07:53:37;;;;;;;0.80;0.80;;;;;;;25.01;31.13;96345.66;5115185;28;20432;-51
2022/05/20 07:56:10;;;;;;;0.50;0.40;;;;;;;25.06;30.22;96340.81;5114962;28;20455;-51
2022/05/20 07:58:47;;;;;;;0.33;0.20;;;;;;;24.88;27.71;96328.56;5114535;28;20941;-51
2022/05/20 08:01:23;;;;;;;0.40;0.30;;;;;;;24.92;27.81;96343.03;5114308;28;20419;-51
2022/05/20 08:06:53;;;;;;;0.37;0.27;;;;;;;25.25;29.29;96330.19;5071391;28;20490;-52
2022/05/20 08:09:26;;;;;;;0.30;0.20;;;;;;;25.31;29.27;96330.78;5105621;28;20849;-52
2022/05/20 08:11:55;;;;;;;0.50;0.30;;;;;;;25.34;28.89;96321.16;5114391;28;20925;-52
2022/05/20 08:14:23;;;;;;;0.43;0.33;;;;;;;26.07;29.65;96309.13;5114445;28;20492;-52
2022/05/20 08:16:53;;;;;;;0.40;0.30;;;;;;;26.25;28.54;96323.25;5114037;28;20499;-51
2022/05/20 08:19:21;;;;;;;0.40;0.30;;;;;;;24.89;28.80;96313.91;5113973;28;20439;-53
2022/05/20 08:21:50;;;;;;;0.50;0.30;;;;;;;25.81;28.08;96316.84;5113753;28;20593;-52
2022/05/20 08:24:18;;;;;;;0.40;0.30;;;;;;;24.95;28.28;96320.66;5113982;28;20490;-52
2022/05/20 08:26:47;;;;;;;0.50;0.40;;;;;;;26.27;28.18;96310.09;5113675;28;20472;-52
2022/05/20 08:29:15;;;;;;;0.40;0.30;;;;;;;26.44;27.08;96299.72;5113874;28;20463;-52
2022/05/20 08:31:44;;;;;;;0.50;0.40;;;;;;;26.87;28.00;96298.97;5113771;28;20436;-52
2022/05/20 08:34:14;;;;;;;0.53;0.30;;;;;;;26.41;26.78;96284.09;5114228;28;20438;-52
2022/05/20 08:36:43;;;;;;;0.30;0.20;;;;;;;27.31;26.80;96277.91;5114129;28;20857;-52
2022/05/20 08:39:12;;;;;;;0.33;0.20;;;;;;;26.79;25.65;96280.88;5113909;28;20423;-52
2022/05/20 08:41:48;;;;;;;0.40;0.30;;;;;;;27.69;26.69;96288.16;5113819;28;20493;-52
2022/05/20 08:44:20;;;;;;;0.40;0.30;;;;;;;27.56;25.92;96282.03;5114074;27;20491;-52
2022/05/20 08:46:49;;;;;;;0.40;0.30;;;;;;;27.96;25.92;96279.00;5113885;28;20423;-52
2022/05/20 08:49:22;;;;;;;0.30;0.20;;;;;;;27.04;25.61;96284.25;5113365;28;20463;-52
2022/05/20 08:51:52;;;;;;;0.30;0.20;;;;;;;27.57;24.83;96278.16;5113720;28;20507;-52
2022/05/20 08:54:21;;;;;;;0.30;0.20;;;;;;;27.92;25.72;96214.69;5113622;28;20896;-52
2022/05/20 08:56:51;;;;;;;0.30;0.30;;;;;;;27.80;24.23;96256.50;5113243;28;20455;-52
2022/05/20 08:59:21;;;;;;;0.30;0.20;;;;;;;27.61;24.60;96216.38;5113758;28;20953;-51
2022/05/20 09:01:51;;;;;;;0.40;0.30;;;;;;;27.31;24.84;96245.22;5113430;28;20514;-51
2022/05/20 09:04:23;;;;;;;0.40;0.30;;;;;;;28.46;24.29;96244.59;5113336;28;20419;-51
2022/05/20 09:07:01;;;;;;;0.40;0.30;;;;;;;28.34;22.82;96240.09;5113503;28;20840;-51
2022/05/20 09:09:43;;;;;;;0.30;0.20;;;;;;;28.46;23.31;96217.34;5113181;28;20471;-52
2022/05/20 09:12:25;;;;;;;0.30;0.30;;;;;;;28.77;24.35;96225.31;5113387;28;20435;-52
2022/05/20 09:17:47;;;;;;;0.40;0.30;;;;;;;28.35;22.95;96217.13;5113027;28;20471;-52
2022/05/20 09:20:24;;;;;;;0.50;0.30;;;;;;;28.65;21.22;96166.28;5113244;28;20455;-52
2022/05/20 09:22:59;;;;;;;0.40;0.30;;;;;;;28.75;21.52;96220.22;5113108;28;20431;-52
2022/05/20 09:25:30;;;;;;;0.70;0.43;;;;;;;28.82;21.40;96184.88;5112974;28;20506;-52
2022/05/20 09:28:19;;;;;;;0.30;0.30;;;;;;;29.69;21.37;96199.44;5112666;28;20419;-52
2022/05/20 09:30:51;;;;;;;0.40;0.30;;;;;;;29.63;20.88;96163.47;5112764;28;20511;-51
2022/05/20 09:33:22;;;;;;;0.40;0.30;;;;;;;29.42;20.09;96174.13;5112731;28;20484;-52
2022/05/20 09:35:57;;;;;;;0.30;0.20;;;;;;;29.39;21.04;96161.19;5112605;28;20428;-51
2022/05/20 09:38:38;;;;;;;0.40;0.30;;;;;;;29.12;22.47;96137.78;5112279;28;20415;-52
2022/05/20 09:41:16;;;;;;;0.30;0.20;;;;;;;28.06;21.27;96155.03;5112270;28;20484;-52
2022/05/20 09:43:46;;;;;;;0.60;0.30;;;;;;;28.58;20.06;96171.56;5112191;28;20455;-51
2022/05/20 09:46:30;;;;;;;0.40;0.30;;;;;;;29.56;20.53;96149.72;5113035;28;20450;-52
2022/05/20 09:49:05;;;;;;;0.30;0.20;;;;;;;29.88;19.88;96096.25;5112854;28;20869;-52
2022/05/20 09:51:41;;;;;;;0.50;0.40;;;;;;;29.64;18.57;96156.06;5112410;28;20477;-51
2022/05/20 09:54:20;;;;;;;0.30;0.30;;;;;;;29.96;18.74;96138.91;5112290;28;20510;-51
2022/05/20 09:57:03;;;;;;;0.30;0.27;;;;;;;30.24;18.41;96129.44;5112414;28;20451;-51
2022/05/20 09:59:39;;;;;;;0.30;0.20;;;;;;;31.27;19.93;96137.38;5112555;28;20513;-51
2022/05/20 10:02:16;;;;;;;0.40;0.30;;;;;;;30.38;17.74;96072.16;5112381;28;20449;-51
2022/05/20 10:04:52;;;;;;;0.40;0.30;;;;;;;31.53;18.31;96079.59;5112194;28;20997;-51
2022/05/20 10:07:35;;;;;;;0.40;0.30;;;;;;;32.51;17.80;96081.81;5112137;28;20466;-50
2022/05/20 10:10:11;;;;;;;0.30;0.20;;;;;;;32.60;17.41;96053.97;5112383;28;20536;-51
2022/05/20 10:12:42;;;;;;;0.40;0.30;;;;;;;33.35;16.79;96109.59;5112160;28;20476;-56
2022/05/20 10:15:19;;;;;;;0.40;0.30;;;;;;;32.88;15.68;96103.38;5112601;28;20435;-57
2022/05/20 10:18:07;;;;;;;0.30;0.30;;;;;;;31.82;18.10;96116.13;5112331;28;20488;-57
2022/05/20 10:20:40;;;;;;;0.40;0.33;;;;;;;31.28;17.08;96090.41;5112149;28;20435;-57
2022/05/20 10:23:19;;;;;;;0.30;0.30;;;;;;;30.15;16.23;95949.28;5112307;28;20480;-58
2022/05/20 10:25:59;;;;;;;0.40;0.30;;;;;;;30.31;17.01;95947.03;5112328;28;20481;-58
2022/05/20 10:34:29;;;;;;;0.30;0.20;;;;;;;33.23;14.98;96064.88;5112006;28;20491;-56
2022/05/20 10:37:03;;;;;;;0.30;0.20;;;;;;;33.57;13.52;95938.75;5111974;28;20478;-56
2022/05/20 10:39:55;;;;;;;0.80;0.80;;;;;;;33.28;14.54;95904.31;5111836;28;20932;-57
2022/05/20 10:42:43;;;;;;;0.30;0.20;;;;;;;33.75;14.82;96049.38;5112173;28;20427;-56
2022/05/20 10:48:39;;;;;;;0.30;0.23;;;;;;;32.29;15.10;96011.63;5111753;28;20472;-57
2022/05/20 10:51:27;;;;;;;0.30;0.20;;;;;;;32.69;13.49;96039.88;5111582;28;20505;-57
2022/05/20 10:54:07;;;;;;;0.30;0.20;;;;;;;33.19;13.89;95998.16;5112074;28;20491;-57
2022/05/20 10:56:58;;;;;;;0.30;0.20;;;;;;;33.69;12.50;96034.50;5115167;28;20891;-56
2022/05/20 10:59:39;;;;;;;0.30;0.30;;;;;;;33.23;11.64;95971.47;5115460;28;20474;-57
2022/05/20 11:02:24;;;;;;;0.30;0.20;;;;;;;34.46;13.50;96022.19;5115603;28;20833;-57
2022/05/20 11:05:17;;;;;;;0.30;0.20;;;;;;;34.94;12.76;96011.13;5115842;27;20988;-57
2022/05/20 11:08:06;;;;;;;0.30;0.20;;;;;;;33.58;10.72;95948.53;5115545;28;20484;-57
2022/05/20 11:10:56;;;;;;;0.30;0.20;;;;;;;34.91;12.25;95978.91;5115786;28;20545;-57
2022/05/20 11:13:43;;;;;;;0.30;0.20;;;;;;;34.87;12.33;95964.38;5115350;28;20870;-58
2022/05/20 11:16:26;;;;;;;0.60;0.30;;;;;;;32.45;13.45;95926.94;5115349;28;20470;-58
2022/05/20 11:19:21;;;;;;;0.30;0.27;;;;;;;33.59;13.43;95965.81;5115590;28;20435;-58
2022/05/20 11:22:24;;;;;;;0.30;0.20;;;;;;;34.09;12.79;96002.03;5115260;28;20419;-58
2022/05/20 11:25:18;;;;;;;0.60;0.53;;;;;;;33.80;12.74;95852.94;5114975;28;20512;-58
2022/05/20 11:28:16;;;;;;;0.30;0.20;;;;;;;33.64;12.22;95938.69;5115134;28;20466;-58
2022/05/20 11:31:02;;;;;;;0.40;0.37;;;;;;;33.58;13.38;95948.53;5109478;28;20482;-58
2022/05/20 11:34:00;;;;;;;0.30;0.27;;;;;;;33.02;12.98;95984.47;5114479;28;20438;-58
2022/05/20 11:36:49;;;;;;;0.40;0.30;;;;;;;32.41;13.15;95997.50;5114695;28;20455;-58
2022/05/20 11:39:47;;;;;;;0.30;0.30;;;;;;;31.94;13.10;95956.72;5115151;28;20470;-58
2022/05/20 11:42:24;;;;;;;0.30;0.20;;;;;;;31.59;13.39;95885.41;5114027;28;20466;-58
2022/05/20 11:45:10;;;;;;;0.40;0.30;;;;;;;32.31;13.38;95896.00;5114958;28;20436;-58
2022/05/20 11:48:13;;;;;;;0.40;0.30;;;;;;;33.51;15.18;95887.28;5114608;28;20426;-58
2022/05/20 11:51:12;;;;;;;0.40;0.30;;;;;;;34.05;12.52;95885.72;5114968;28;20502;-58
2022/05/20 11:53:44;;;;;;;0.30;0.27;;;;;;;33.90;13.48;95936.53;5115001;28;20455;-58
2022/05/20 11:56:20;;;;;;;0.40;0.30;;;;;;;32.35;12.33;95790.53;5114655;28;20454;-58
2022/05/20 11:58:56;;;;;;;0.40;0.30;;;;;;;34.36;13.81;95956.22;5114810;28;20494;-58
2022/05/20 12:01:26;;;;;;;0.30;0.30;;;;;;;34.74;12.42;95908.25;5114842;28;20999;-58
2022/05/20 12:04:07;;;;;;;0.40;0.30;;;;;;;34.26;11.68;95915.81;5114211;28;20419;-58
2022/05/20 12:06:41;;;;;;;0.30;0.20;;;;;;;35.24;12.68;95935.25;5113862;28;20510;-58
2022/05/20 12:09:33;;;;;;;0.40;0.30;;;;;;;33.09;12.25;95935.03;5114371;28;21008;-59
2022/05/20 12:12:27;;;;;;;0.40;0.40;;;;;;;31.90;12.76;95849.78;5114264;28;20474;-59
2022/05/20 12:15:06;;;;;;;0.30;0.30;;;;;;;31.88;13.91;95903.44;5113636;28;21154;-58
2022/05/20 12:17:37;;;;;;;0.40;0.30;;;;;;;32.95;12.76;95922.09;5114298;28;20509;-58
2022/05/20 12:26:24;;;;;;;0.30;0.20;;;;;;;33.55;12.20;95894.34;5113858;28;20952;-58
2022/05/20 12:28:53;;;;;;;0.30;0.20;;;;;;;33.06;12.34;95856.16;5113760;28;20419;-58
2022/05/20 12:31:39;;;;;;;0.30;0.30;;;;;;;34.65;13.09;95916.22;5113468;28;20509;-58
2022/05/20 12:34:11;;;;;;;0.40;0.30;;;;;;;33.91;13.20;95795.06;5113173;28;20952;-58
2022/05/20 12:36:43;;;;;;;0.30;0.20;;;;;;;34.53;13.92;95902.19;5113615;28;20444;-58
2022/05/20 12:39:20;;;;;;;0.70;0.67;;;;;;;33.68;13.11;95889.94;5113368;28;20427;-58
2022/05/20 12:42:01;;;;;;;0.40;0.30;;;;;;;32.99;12.41;95754.56;5113659;28;20466;-58
2022/05/20 12:44:36;;;;;;;0.50;0.37;;;;;;;32.98;12.16;95789.47;5113846;28;20430;-59